sensor_id;sensor_type;location;lat;lon;timestamp;P1;durP1;ratioP1;P2;durP2;ratioP2
67063;SDS011;58476;48.072;11.970;2023-04-01T00:00:19;5.55;;;0.90;;
67063;SDS011;58476;48.072;11.970;2023-04-01T00:02:45;15.93;;;1.45;;
67063;SDS011;58476;48.072;11.970;2023-04-01T00:05:11;5.25;;;1.17;;
67063;SDS011;58476;48.072;11.970;2023-04-01T00:07:37;7.03;;;1.27;;
67063;SDS011;58476;48.072;11.970;2023-04-01T00:10:03;10.50;;;1.00;;
67063;SDS011;58476;48.072;11.970;2023-04-01T00:12:32;9.68;;;1.50;;
67063;SDS011;58476;48.072;11.970;2023-04-01T00:14:58;13.95;;;1.52;;
67063;SDS011;58476;48.072;11.970;2023-04-01T00:17:24;12.40;;;1.42;;
67063;SDS011;58476;48.072;11.970;2023-04-01T00:19:49;18.33;;;1.90;;
67063;SDS011;58476;48.072;11.970;2023-04-01T00:22:14;11.43;;;1.40;;
67063;SDS011;58476;48.072;11.970;2023-04-01T00:24:40;12.88;;;2.20;;
67063;SDS011;58476;48.072;11.970;2023-04-01T00:27:05;13.27;;;1.67;;
67063;SDS011;58476;48.072;11.970;2023-04-01T00:29:31;17.23;;;2.60;;
67063;SDS011;58476;48.072;11.970;2023-04-01T00:31:56;13.73;;;1.50;;
67063;SDS011;58476;48.072;11.970;2023-04-01T00:34:22;8.80;;;1.30;;
67063;SDS011;58476;48.072;11.970;2023-04-01T00:36:47;15.98;;;1.60;;
67063;SDS011;58476;48.072;11.970;2023-04-01T00:39:13;10.13;;;1.15;;
67063;SDS011;58476;48.072;11.970;2023-04-01T00:41:38;11.00;;;1.60;;
67063;SDS011;58476;48.072;11.970;2023-04-01T00:44:20;5.60;;;1.17;;
67063;SDS011;58476;48.072;11.970;2023-04-01T00:46:47;11.88;;;1.20;;
67063;SDS011;58476;48.072;11.970;2023-04-01T00:49:12;9.20;;;1.10;;
67063;SDS011;58476;48.072;11.970;2023-04-01T00:51:40;14.68;;;1.70;;
67063;SDS011;58476;48.072;11.970;2023-04-01T00:54:06;7.30;;;0.88;;
67063;SDS011;58476;48.072;11.970;2023-04-01T00:56:35;10.30;;;1.40;;
67063;SDS011;58476;48.072;11.970;2023-04-01T00:59:07;9.32;;;1.38;;
67063;SDS011;58476;48.072;11.970;2023-04-01T01:01:36;5.88;;;0.65;;
67063;SDS011;58476;48.072;11.970;2023-04-01T01:04:02;5.95;;;1.10;;
67063;SDS011;58476;48.072;11.970;2023-04-01T01:09:20;4.47;;;0.90;;
67063;SDS011;58476;48.072;11.970;2023-04-01T01:12:00;3.90;;;0.70;;
67063;SDS011;58476;48.072;11.970;2023-04-01T01:17:33;7.20;;;0.63;;
67063;SDS011;58476;48.072;11.970;2023-04-01T01:28:44;5.03;;;1.08;;
67063;SDS011;58476;48.072;11.970;2023-04-01T01:32:24;6.65;;;1.20;;
67063;SDS011;58476;48.072;11.970;2023-04-01T01:37:32;5.50;;;0.80;;
67063;SDS011;58476;48.072;11.970;2023-04-01T01:39:59;2.75;;;0.70;;
67063;SDS011;58476;48.072;11.970;2023-04-01T01:42:30;2.33;;;0.85;;
67063;SDS011;58476;48.072;11.970;2023-04-01T01:44:58;2.08;;;0.50;;
67063;SDS011;58476;48.072;11.970;2023-04-01T01:47:25;3.90;;;0.65;;
67063;SDS011;58476;48.072;11.970;2023-04-01T01:49:53;2.80;;;0.50;;
67063;SDS011;58476;48.072;11.970;2023-04-01T01:52:21;2.70;;;0.47;;
67063;SDS011;58476;48.072;11.970;2023-04-01T01:54:50;1.88;;;0.55;;
67063;SDS011;58476;48.072;11.970;2023-04-01T01:57:26;2.60;;;1.02;;
67063;SDS011;58476;48.072;11.970;2023-04-01T02:00:03;2.08;;;0.60;;
67063;SDS011;58476;48.072;11.970;2023-04-01T02:02:41;4.70;;;0.83;;
67063;SDS011;58476;48.072;11.970;2023-04-01T02:05:14;2.38;;;0.50;;
67063;SDS011;58476;48.072;11.970;2023-04-01T02:07:44;2.38;;;0.70;;
67063;SDS011;58476;48.072;11.970;2023-04-01T02:10:14;3.15;;;0.70;;
67063;SDS011;58476;48.072;11.970;2023-04-01T02:12:40;2.85;;;0.63;;
67063;SDS011;58476;48.072;11.970;2023-04-01T02:15:10;2.35;;;0.65;;
67063;SDS011;58476;48.072;11.970;2023-04-01T02:17:38;1.17;;;0.52;;
67063;SDS011;58476;48.072;11.970;2023-04-01T02:20:09;4.40;;;1.30;;
67063;SDS011;58476;48.072;11.970;2023-04-01T02:22:39;1.85;;;0.40;;
67063;SDS011;58476;48.072;11.970;2023-04-01T02:25:08;1.60;;;0.40;;
67063;SDS011;58476;48.072;11.970;2023-04-01T02:27:36;0.93;;;0.65;;
67063;SDS011;58476;48.072;11.970;2023-04-01T02:30:02;1.65;;;0.43;;
67063;SDS011;58476;48.072;11.970;2023-04-01T02:32:29;1.60;;;0.65;;
67063;SDS011;58476;48.072;11.970;2023-04-01T02:34:57;1.75;;;0.40;;
67063;SDS011;58476;48.072;11.970;2023-04-01T02:37:23;1.98;;;0.50;;
67063;SDS011;58476;48.072;11.970;2023-04-01T02:39:48;4.28;;;0.60;;
67063;SDS011;58476;48.072;11.970;2023-04-01T02:42:13;2.97;;;1.50;;
67063;SDS011;58476;48.072;11.970;2023-04-01T02:44:39;2.53;;;0.45;;
67063;SDS011;58476;48.072;11.970;2023-04-01T02:47:04;1.05;;;0.57;;
67063;SDS011;58476;48.072;11.970;2023-04-01T02:49:29;0.55;;;0.40;;
67063;SDS011;58476;48.072;11.970;2023-04-01T02:51:55;1.45;;;0.50;;
67063;SDS011;58476;48.072;11.970;2023-04-01T02:54:20;0.85;;;0.60;;
67063;SDS011;58476;48.072;11.970;2023-04-01T02:56:45;0.32;;;0.30;;
67063;SDS011;58476;48.072;11.970;2023-04-01T02:59:11;1.08;;;0.40;;
67063;SDS011;58476;48.072;11.970;2023-04-01T03:01:37;1.13;;;0.75;;
67063;SDS011;58476;48.072;11.970;2023-04-01T03:04:03;0.30;;;0.30;;
67063;SDS011;58476;48.072;11.970;2023-04-01T03:06:29;2.58;;;0.60;;
67063;SDS011;58476;48.072;11.970;2023-04-01T03:08:54;0.65;;;0.35;;
67063;SDS011;58476;48.072;11.970;2023-04-01T03:11:20;0.68;;;0.45;;
67063;SDS011;58476;48.072;11.970;2023-04-01T03:13:45;0.98;;;0.50;;
67063;SDS011;58476;48.072;11.970;2023-04-01T03:16:11;0.75;;;0.40;;
67063;SDS011;58476;48.072;11.970;2023-04-01T03:18:36;0.40;;;0.40;;
67063;SDS011;58476;48.072;11.970;2023-04-01T03:21:14;2.22;;;0.63;;
67063;SDS011;58476;48.072;11.970;2023-04-01T03:23:44;0.40;;;0.30;;
67063;SDS011;58476;48.072;11.970;2023-04-01T03:26:10;2.30;;;0.50;;
67063;SDS011;58476;48.072;11.970;2023-04-01T03:28:35;1.10;;;0.47;;
67063;SDS011;58476;48.072;11.970;2023-04-01T03:31:01;1.65;;;0.40;;
67063;SDS011;58476;48.072;11.970;2023-04-01T03:33:35;0.32;;;0.30;;
67063;SDS011;58476;48.072;11.970;2023-04-01T03:36:01;1.75;;;0.40;;
67063;SDS011;58476;48.072;11.970;2023-04-01T03:38:26;0.93;;;0.30;;
67063;SDS011;58476;48.072;11.970;2023-04-01T03:40:52;1.77;;;0.40;;
67063;SDS011;58476;48.072;11.970;2023-04-01T03:43:17;1.08;;;0.40;;
67063;SDS011;58476;48.072;11.970;2023-04-01T03:45:43;1.65;;;0.50;;
67063;SDS011;58476;48.072;11.970;2023-04-01T03:48:13;0.32;;;0.30;;
67063;SDS011;58476;48.072;11.970;2023-04-01T03:50:39;0.28;;;0.20;;
67063;SDS011;58476;48.072;11.970;2023-04-01T03:53:04;0.80;;;0.28;;
67063;SDS011;58476;48.072;11.970;2023-04-01T03:55:29;0.20;;;0.20;;
67063;SDS011;58476;48.072;11.970;2023-04-01T03:57:55;0.88;;;0.30;;
67063;SDS011;58476;48.072;11.970;2023-04-01T04:00:20;0.63;;;0.40;;
67063;SDS011;58476;48.072;11.970;2023-04-01T04:02:51;0.77;;;0.50;;
67063;SDS011;58476;48.072;11.970;2023-04-01T04:05:23;1.40;;;0.73;;
67063;SDS011;58476;48.072;11.970;2023-04-01T04:07:50;2.15;;;0.80;;
67063;SDS011;58476;48.072;11.970;2023-04-01T04:10:15;1.42;;;0.32;;
67063;SDS011;58476;48.072;11.970;2023-04-01T04:12:41;0.30;;;0.30;;
67063;SDS011;58476;48.072;11.970;2023-04-01T04:15:07;0.20;;;0.20;;
67063;SDS011;58476;48.072;11.970;2023-04-01T04:17:33;0.30;;;0.20;;
67063;SDS011;58476;48.072;11.970;2023-04-01T04:19:58;0.30;;;0.30;;
67063;SDS011;58476;48.072;11.970;2023-04-01T04:22:24;1.17;;;0.40;;
67063;SDS011;58476;48.072;11.970;2023-04-01T04:24:49;0.20;;;0.20;;
67063;SDS011;58476;48.072;11.970;2023-04-01T04:27:15;0.70;;;0.30;;
67063;SDS011;58476;48.072;11.970;2023-04-01T04:29:50;0.52;;;0.30;;
67063;SDS011;58476;48.072;11.970;2023-04-01T04:32:16;0.63;;;0.30;;
67063;SDS011;58476;48.072;11.970;2023-04-01T04:34:41;1.27;;;0.60;;
67063;SDS011;58476;48.072;11.970;2023-04-01T04:37:07;0.55;;;0.25;;
67063;SDS011;58476;48.072;11.970;2023-04-01T04:39:34;0.20;;;0.20;;
67063;SDS011;58476;48.072;11.970;2023-04-01T04:42:00;0.30;;;0.22;;
67063;SDS011;58476;48.072;11.970;2023-04-01T04:44:25;1.50;;;0.40;;
67063;SDS011;58476;48.072;11.970;2023-04-01T04:46:51;0.20;;;0.20;;
67063;SDS011;58476;48.072;11.970;2023-04-01T04:49:16;0.70;;;0.38;;
67063;SDS011;58476;48.072;11.970;2023-04-01T04:51:41;1.02;;;0.30;;
67063;SDS011;58476;48.072;11.970;2023-04-01T04:54:07;0.30;;;0.30;;
67063;SDS011;58476;48.072;11.970;2023-04-01T04:56:45;0.43;;;0.20;;
67063;SDS011;58476;48.072;11.970;2023-04-01T04:59:11;1.63;;;0.30;;
67063;SDS011;58476;48.072;11.970;2023-04-01T05:01:49;0.40;;;0.22;;
67063;SDS011;58476;48.072;11.970;2023-04-01T05:04:14;0.20;;;0.20;;
67063;SDS011;58476;48.072;11.970;2023-04-01T05:06:40;0.63;;;0.30;;
67063;SDS011;58476;48.072;11.970;2023-04-01T05:09:07;1.08;;;0.20;;
67063;SDS011;58476;48.072;11.970;2023-04-01T05:11:32;1.45;;;0.30;;
67063;SDS011;58476;48.072;11.970;2023-04-01T05:13:58;0.43;;;0.30;;
67063;SDS011;58476;48.072;11.970;2023-04-01T05:16:23;1.20;;;0.40;;
67063;SDS011;58476;48.072;11.970;2023-04-01T05:18:48;0.77;;;0.30;;
67063;SDS011;58476;48.072;11.970;2023-04-01T05:21:14;0.30;;;0.30;;
67063;SDS011;58476;48.072;11.970;2023-04-01T05:23:40;0.20;;;0.20;;
67063;SDS011;58476;48.072;11.970;2023-04-01T05:26:07;0.20;;;0.20;;
67063;SDS011;58476;48.072;11.970;2023-04-01T05:31:03;2.13;;;0.22;;
67063;SDS011;58476;48.072;11.970;2023-04-01T05:33:33;1.13;;;0.30;;
67063;SDS011;58476;48.072;11.970;2023-04-01T05:36:06;2.95;;;0.47;;
67063;SDS011;58476;48.072;11.970;2023-04-01T05:38:32;2.25;;;0.40;;
67063;SDS011;58476;48.072;11.970;2023-04-01T05:40:58;0.63;;;0.50;;
67063;SDS011;58476;48.072;11.970;2023-04-01T05:43:28;5.82;;;0.68;;
67063;SDS011;58476;48.072;11.970;2023-04-01T05:45:55;13.98;;;1.10;;
67063;SDS011;58476;48.072;11.970;2023-04-01T05:48:36;6.82;;;1.10;;
67063;SDS011;58476;48.072;11.970;2023-04-01T05:51:02;13.40;;;1.13;;
67063;SDS011;58476;48.072;11.970;2023-04-01T05:53:27;16.77;;;1.25;;
67063;SDS011;58476;48.072;11.970;2023-04-01T05:55:53;9.90;;;0.80;;
67063;SDS011;58476;48.072;11.970;2023-04-01T05:58:18;11.45;;;0.70;;
67063;SDS011;58476;48.072;11.970;2023-04-01T06:00:45;9.05;;;1.20;;
67063;SDS011;58476;48.072;11.970;2023-04-01T06:03:12;7.43;;;0.70;;
67063;SDS011;58476;48.072;11.970;2023-04-01T06:05:42;4.65;;;0.57;;
67063;SDS011;58476;48.072;11.970;2023-04-01T06:16:34;4.82;;;0.80;;
67063;SDS011;58476;48.072;11.970;2023-04-01T06:30:20;10.07;;;0.98;;
67063;SDS011;58476;48.072;11.970;2023-04-01T06:54:09;7.57;;;1.15;;
67063;SDS011;58476;48.072;11.970;2023-04-01T06:56:58;6.40;;;0.93;;
67063;SDS011;58476;48.072;11.970;2023-04-01T06:59:30;16.08;;;1.73;;
67063;SDS011;58476;48.072;11.970;2023-04-01T07:02:02;4.85;;;1.17;;
67063;SDS011;58476;48.072;11.970;2023-04-01T07:04:43;2.53;;;0.80;;
67063;SDS011;58476;48.072;11.970;2023-04-01T07:07:16;9.77;;;1.08;;
67063;SDS011;58476;48.072;11.970;2023-04-01T07:09:56;17.42;;;1.23;;
67063;SDS011;58476;48.072;11.970;2023-04-01T07:18:21;6.90;;;1.55;;
67063;SDS011;58476;48.072;11.970;2023-04-01T07:20:55;13.52;;;1.30;;
67063;SDS011;58476;48.072;11.970;2023-04-01T07:23:23;11.95;;;1.17;;
67063;SDS011;58476;48.072;11.970;2023-04-01T07:26:06;6.15;;;1.00;;
67063;SDS011;58476;48.072;11.970;2023-04-01T07:29:00;5.65;;;0.82;;
67063;SDS011;58476;48.072;11.970;2023-04-01T07:34:31;5.78;;;0.93;;
67063;SDS011;58476;48.072;11.970;2023-04-01T07:37:03;5.10;;;1.38;;
67063;SDS011;58476;48.072;11.970;2023-04-01T07:39:35;9.18;;;1.10;;
67063;SDS011;58476;48.072;11.970;2023-04-01T07:58:48;6.97;;;1.10;;
67063;SDS011;58476;48.072;11.970;2023-04-01T08:07:51;7.45;;;1.10;;
67063;SDS011;58476;48.072;11.970;2023-04-01T08:19:46;11.18;;;0.80;;
67063;SDS011;58476;48.072;11.970;2023-04-01T08:22:41;2.22;;;1.02;;
67063;SDS011;58476;48.072;11.970;2023-04-01T08:25:22;5.05;;;0.90;;
67063;SDS011;58476;48.072;11.970;2023-04-01T08:27:53;4.28;;;0.70;;
67063;SDS011;58476;48.072;11.970;2023-04-01T08:30:25;3.60;;;0.57;;
67063;SDS011;58476;48.072;11.970;2023-04-01T08:33:03;2.90;;;0.82;;
67063;SDS011;58476;48.072;11.970;2023-04-01T08:35:40;4.40;;;0.70;;
67063;SDS011;58476;48.072;11.970;2023-04-01T08:38:53;5.80;;;0.88;;
67063;SDS011;58476;48.072;11.970;2023-04-01T08:41:27;4.07;;;0.70;;
67063;SDS011;58476;48.072;11.970;2023-04-01T08:53:34;4.07;;;0.55;;
67063;SDS011;58476;48.072;11.970;2023-04-01T09:07:22;5.05;;;0.70;;
67063;SDS011;58476;48.072;11.970;2023-04-01T09:16:42;9.55;;;0.70;;
67063;SDS011;58476;48.072;11.970;2023-04-01T09:24:56;1.45;;;0.80;;
67063;SDS011;58476;48.072;11.970;2023-04-01T09:28:25;1.85;;;0.35;;
67063;SDS011;58476;48.072;11.970;2023-04-01T09:35:48;8.65;;;0.77;;
67063;SDS011;58476;48.072;11.970;2023-04-01T09:41:48;7.05;;;0.75;;
67063;SDS011;58476;48.072;11.970;2023-04-01T09:44:37;8.20;;;0.88;;
67063;SDS011;58476;48.072;11.970;2023-04-01T09:52:38;7.03;;;0.93;;
67063;SDS011;58476;48.072;11.970;2023-04-01T10:12:00;6.03;;;1.60;;
67063;SDS011;58476;48.072;11.970;2023-04-01T10:23:08;6.72;;;1.17;;
67063;SDS011;58476;48.072;11.970;2023-04-01T10:26:07;5.20;;;1.00;;
67063;SDS011;58476;48.072;11.970;2023-04-01T10:36:47;8.93;;;1.08;;
67063;SDS011;58476;48.072;11.970;2023-04-01T10:48:18;2.05;;;0.52;;
67063;SDS011;58476;48.072;11.970;2023-04-01T10:51:10;3.97;;;0.75;;
67063;SDS011;58476;48.072;11.970;2023-04-01T11:09:07;3.45;;;0.40;;
67063;SDS011;58476;48.072;11.970;2023-04-01T11:25:14;2.75;;;0.40;;
67063;SDS011;58476;48.072;11.970;2023-04-01T11:31:02;3.88;;;1.55;;
67063;SDS011;58476;48.072;11.970;2023-04-01T11:54:00;3.53;;;0.55;;
67063;SDS011;58476;48.072;11.970;2023-04-01T12:04:50;2.00;;;0.60;;
67063;SDS011;58476;48.072;11.970;2023-04-01T12:10:10;1.85;;;0.60;;
67063;SDS011;58476;48.072;11.970;2023-04-01T12:15:52;0.63;;;0.38;;
67063;SDS011;58476;48.072;11.970;2023-04-01T12:26:46;2.00;;;0.50;;
67063;SDS011;58476;48.072;11.970;2023-04-01T12:34:52;9.13;;;0.70;;
67063;SDS011;58476;48.072;11.970;2023-04-01T12:40:24;2.15;;;0.40;;
67063;SDS011;58476;48.072;11.970;2023-04-01T12:46:19;2.85;;;0.45;;
67063;SDS011;58476;48.072;11.970;2023-04-01T12:51:45;3.53;;;0.52;;
67063;SDS011;58476;48.072;11.970;2023-04-01T12:57:17;1.20;;;0.30;;
67063;SDS011;58476;48.072;11.970;2023-04-01T13:08:29;5.53;;;0.50;;
67063;SDS011;58476;48.072;11.970;2023-04-01T13:11:09;1.67;;;0.43;;
67063;SDS011;58476;48.072;11.970;2023-04-01T13:16:29;2.15;;;0.40;;
67063;SDS011;58476;48.072;11.970;2023-04-01T13:24:24;1.85;;;0.35;;
67063;SDS011;58476;48.072;11.970;2023-04-01T13:41:39;0.25;;;0.22;;
67063;SDS011;58476;48.072;11.970;2023-04-01T13:44:17;4.45;;;0.35;;
67063;SDS011;58476;48.072;11.970;2023-04-01T13:47:11;4.60;;;0.50;;
67063;SDS011;58476;48.072;11.970;2023-04-01T13:52:23;2.30;;;0.38;;
67063;SDS011;58476;48.072;11.970;2023-04-01T14:09:32;2.90;;;0.52;;
67063;SDS011;58476;48.072;11.970;2023-04-01T14:15:07;4.70;;;0.30;;
67063;SDS011;58476;48.072;11.970;2023-04-01T14:42:54;8.95;;;2.17;;
67063;SDS011;58476;48.072;11.970;2023-04-01T14:46:04;2.40;;;0.40;;
67063;SDS011;58476;48.072;11.970;2023-04-01T14:48:49;2.65;;;0.40;;
67063;SDS011;58476;48.072;11.970;2023-04-01T14:51:31;2.00;;;0.40;;
67063;SDS011;58476;48.072;11.970;2023-04-01T14:59:47;1.95;;;0.38;;
67063;SDS011;58476;48.072;11.970;2023-04-01T15:04:56;2.80;;;0.50;;
67063;SDS011;58476;48.072;11.970;2023-04-01T15:07:51;4.35;;;0.70;;
67063;SDS011;58476;48.072;11.970;2023-04-01T15:18:35;0.43;;;0.30;;
67063;SDS011;58476;48.072;11.970;2023-04-01T15:37:02;3.78;;;0.70;;
67063;SDS011;58476;48.072;11.970;2023-04-01T15:50:25;15.27;;;1.70;;
67063;SDS011;58476;48.072;11.970;2023-04-01T15:58:41;8.75;;;1.25;;
67063;SDS011;58476;48.072;11.970;2023-04-01T16:06:24;7.78;;;1.45;;
67063;SDS011;58476;48.072;11.970;2023-04-01T16:11:37;5.10;;;1.33;;
67063;SDS011;58476;48.072;11.970;2023-04-01T16:22:08;12.80;;;1.58;;
67063;SDS011;58476;48.072;11.970;2023-04-01T16:27:12;8.15;;;1.90;;
67063;SDS011;58476;48.072;11.970;2023-04-01T16:42:50;3.55;;;1.17;;
67063;SDS011;58476;48.072;11.970;2023-04-01T16:45:21;4.90;;;1.08;;
67063;SDS011;58476;48.072;11.970;2023-04-01T16:50:44;3.45;;;1.00;;
67063;SDS011;58476;48.072;11.970;2023-04-01T16:53:29;1.48;;;0.80;;
67063;SDS011;58476;48.072;11.970;2023-04-01T16:56:12;5.05;;;0.95;;
67063;SDS011;58476;48.072;11.970;2023-04-01T17:01:21;6.95;;;1.10;;
67063;SDS011;58476;48.072;11.970;2023-04-01T17:03:58;5.97;;;1.15;;
67063;SDS011;58476;48.072;11.970;2023-04-01T17:06:47;23.55;;;4.20;;
67063;SDS011;58476;48.072;11.970;2023-04-01T17:17:38;8.70;;;1.25;;
67063;SDS011;58476;48.072;11.970;2023-04-01T17:23:03;17.25;;;1.88;;
67063;SDS011;58476;48.072;11.970;2023-04-01T17:31:53;11.15;;;2.25;;
67063;SDS011;58476;48.072;11.970;2023-04-01T17:37:34;8.40;;;1.27;;
67063;SDS011;58476;48.072;11.970;2023-04-01T17:40:41;11.68;;;1.23;;
67063;SDS011;58476;48.072;11.970;2023-04-01T17:45:57;12.65;;;1.90;;
67063;SDS011;58476;48.072;11.970;2023-04-01T17:51:31;11.73;;;1.40;;
67063;SDS011;58476;48.072;11.970;2023-04-01T18:07:59;4.60;;;1.08;;
67063;SDS011;58476;48.072;11.970;2023-04-01T18:10:34;7.10;;;1.20;;
67063;SDS011;58476;48.072;11.970;2023-04-01T18:16:29;6.32;;;1.17;;
67063;SDS011;58476;48.072;11.970;2023-04-01T18:19:09;17.15;;;1.50;;
67063;SDS011;58476;48.072;11.970;2023-04-01T18:21:49;9.43;;;1.10;;
67063;SDS011;58476;48.072;11.970;2023-04-01T18:24:40;13.55;;;1.20;;
67063;SDS011;58476;48.072;11.970;2023-04-01T18:29:52;18.42;;;1.77;;
67063;SDS011;58476;48.072;11.970;2023-04-01T18:32:26;5.72;;;1.02;;
67063;SDS011;58476;48.072;11.970;2023-04-01T18:43:04;12.40;;;1.90;;
67063;SDS011;58476;48.072;11.970;2023-04-01T18:45:37;14.98;;;1.67;;
67063;SDS011;58476;48.072;11.970;2023-04-01T18:51:33;10.73;;;1.40;;
67063;SDS011;58476;48.072;11.970;2023-04-01T18:54:05;21.05;;;3.15;;
67063;SDS011;58476;48.072;11.970;2023-04-01T18:56:37;15.90;;;2.05;;
67063;SDS011;58476;48.072;11.970;2023-04-01T18:59:05;8.85;;;1.33;;
67063;SDS011;58476;48.072;11.970;2023-04-01T19:01:40;6.40;;;1.27;;
67063;SDS011;58476;48.072;11.970;2023-04-01T19:04:30;7.28;;;1.38;;
67063;SDS011;58476;48.072;11.970;2023-04-01T19:07:02;8.75;;;1.52;;
67063;SDS011;58476;48.072;11.970;2023-04-01T19:09:48;8.90;;;1.08;;
67063;SDS011;58476;48.072;11.970;2023-04-01T19:17:54;8.27;;;1.20;;
67063;SDS011;58476;48.072;11.970;2023-04-01T19:20:35;8.57;;;1.00;;
67063;SDS011;58476;48.072;11.970;2023-04-01T19:25:53;12.85;;;1.30;;
67063;SDS011;58476;48.072;11.970;2023-04-01T19:28:39;13.55;;;1.60;;
67063;SDS011;58476;48.072;11.970;2023-04-01T19:42:03;7.82;;;2.08;;
67063;SDS011;58476;48.072;11.970;2023-04-01T19:44:33;7.25;;;1.33;;
67063;SDS011;58476;48.072;11.970;2023-04-01T19:52:56;12.48;;;1.10;;
67063;SDS011;58476;48.072;11.970;2023-04-01T20:00:41;5.32;;;1.10;;
67063;SDS011;58476;48.072;11.970;2023-04-01T20:11:30;11.98;;;1.10;;
67063;SDS011;58476;48.072;11.970;2023-04-01T20:16:50;8.27;;;1.17;;
67063;SDS011;58476;48.072;11.970;2023-04-01T20:19:27;2.88;;;1.10;;
67063;SDS011;58476;48.072;11.970;2023-04-01T20:22:28;12.57;;;1.58;;
67063;SDS011;58476;48.072;11.970;2023-04-01T20:25:13;3.97;;;1.35;;
67063;SDS011;58476;48.072;11.970;2023-04-01T20:27:50;13.43;;;1.58;;
67063;SDS011;58476;48.072;11.970;2023-04-01T20:30:34;4.28;;;1.00;;
67063;SDS011;58476;48.072;11.970;2023-04-01T20:33:09;14.00;;;1.40;;
67063;SDS011;58476;48.072;11.970;2023-04-01T20:35:44;10.02;;;1.00;;
67063;SDS011;58476;48.072;11.970;2023-04-01T20:50:50;4.90;;;0.85;;
67063;SDS011;58476;48.072;11.970;2023-04-01T21:04:27;5.20;;;0.93;;
67063;SDS011;58476;48.072;11.970;2023-04-01T21:15:21;6.63;;;1.02;;
67063;SDS011;58476;48.072;11.970;2023-04-01T21:18:04;7.00;;;0.90;;
67063;SDS011;58476;48.072;11.970;2023-04-01T21:20:54;9.25;;;1.73;;
67063;SDS011;58476;48.072;11.970;2023-04-01T21:23:28;13.77;;;1.40;;
67063;SDS011;58476;48.072;11.970;2023-04-01T21:26:52;3.33;;;0.90;;
67063;SDS011;58476;48.072;11.970;2023-04-01T21:31:36;12.85;;;1.42;;
67063;SDS011;58476;48.072;11.970;2023-04-01T21:42:57;10.43;;;1.23;;
67063;SDS011;58476;48.072;11.970;2023-04-01T21:48:29;13.68;;;2.47;;
67063;SDS011;58476;48.072;11.970;2023-04-01T22:05:52;4.38;;;1.05;;
67063;SDS011;58476;48.072;11.970;2023-04-01T22:08:39;8.25;;;1.25;;
67063;SDS011;58476;48.072;11.970;2023-04-01T22:14:15;12.32;;;1.50;;
67063;SDS011;58476;48.072;11.970;2023-04-01T22:16:57;6.43;;;1.33;;
67063;SDS011;58476;48.072;11.970;2023-04-01T22:22:19;11.48;;;1.35;;
67063;SDS011;58476;48.072;11.970;2023-04-01T22:25:42;7.28;;;1.30;;
67063;SDS011;58476;48.072;11.970;2023-04-01T22:31:00;7.07;;;0.98;;
67063;SDS011;58476;48.072;11.970;2023-04-01T22:36:08;7.80;;;1.10;;
67063;SDS011;58476;48.072;11.970;2023-04-01T22:44:00;17.45;;;1.35;;
67063;SDS011;58476;48.072;11.970;2023-04-01T22:46:28;9.32;;;1.40;;
67063;SDS011;58476;48.072;11.970;2023-04-01T22:49:25;7.95;;;1.13;;
67063;SDS011;58476;48.072;11.970;2023-04-01T22:54:40;5.43;;;0.88;;
67063;SDS011;58476;48.072;11.970;2023-04-01T22:57:11;6.35;;;1.15;;
67063;SDS011;58476;48.072;11.970;2023-04-01T22:59:48;11.25;;;1.10;;
67063;SDS011;58476;48.072;11.970;2023-04-01T23:02:23;1.85;;;0.77;;
67063;SDS011;58476;48.072;11.970;2023-04-01T23:04:57;9.98;;;1.92;;
67063;SDS011;58476;48.072;11.970;2023-04-01T23:13:29;6.50;;;0.77;;
67063;SDS011;58476;48.072;11.970;2023-04-01T23:16:32;9.75;;;1.10;;
67063;SDS011;58476;48.072;11.970;2023-04-01T23:19:14;3.63;;;0.70;;
67063;SDS011;58476;48.072;11.970;2023-04-01T23:21:53;7.18;;;1.00;;
67063;SDS011;58476;48.072;11.970;2023-04-01T23:24:30;4.10;;;1.10;;
67063;SDS011;58476;48.072;11.970;2023-04-01T23:27:07;4.55;;;1.00;;
67063;SDS011;58476;48.072;11.970;2023-04-01T23:29:43;6.78;;;0.80;;
67063;SDS011;58476;48.072;11.970;2023-04-01T23:32:15;5.68;;;0.93;;
67063;SDS011;58476;48.072;11.970;2023-04-01T23:34:47;7.70;;;1.30;;
67063;SDS011;58476;48.072;11.970;2023-04-01T23:37:14;5.63;;;0.90;;
67063;SDS011;58476;48.072;11.970;2023-04-01T23:39:51;11.60;;;1.20;;
67063;SDS011;58476;48.072;11.970;2023-04-01T23:42:19;4.03;;;0.90;;
67063;SDS011;58476;48.072;11.970;2023-04-01T23:44:48;11.88;;;1.13;;
67063;SDS011;58476;48.072;11.970;2023-04-01T23:47:38;4.30;;;0.98;;
67063;SDS011;58476;48.072;11.970;2023-04-01T23:50:09;7.55;;;1.48;;
67063;SDS011;58476;48.072;11.970;2023-04-01T23:52:42;4.70;;;0.75;;
67063;SDS011;58476;48.072;11.970;2023-04-01T23:57:36;4.60;;;0.70;;
